createdAt,value
2023-04-08T00:00:28.067Z,28.20
2023-04-08T00:02:54.814Z,21.42
2023-04-08T00:05:21.712Z,26.02
2023-04-08T00:07:48.473Z,26.40
2023-04-08T00:10:15.469Z,19.15
2023-04-08T00:12:42.183Z,19.60
2023-04-08T00:15:09.254Z,23.85
2023-04-08T00:17:35.980Z,19.20
2023-04-08T00:20:03.195Z,27.35
2023-04-08T00:22:29.842Z,18.55
2023-04-08T00:24:57.806Z,22.77
2023-04-08T00:29:54.215Z,20.75
2023-04-08T00:32:21.585Z,27.45
2023-04-08T00:34:49.484Z,16.33
2023-04-08T00:39:42.933Z,21.50
2023-04-08T00:42:09.877Z,24.25
2023-04-08T00:44:36.793Z,22.80
2023-04-08T00:47:04.255Z,20.30
2023-04-08T00:49:31.759Z,18.33
2023-04-08T00:51:59.835Z,21.88
2023-04-08T00:56:53.319Z,18.50
2023-04-08T00:59:20.028Z,22.17
2023-04-08T01:01:55.838Z,26.77
2023-04-08T01:04:41.256Z,26.42
2023-04-08T01:07:13.512Z,18.95
2023-04-08T01:09:47.122Z,20.33
2023-04-08T01:12:20.815Z,18.90
2023-04-08T01:14:48.847Z,21.63
2023-04-08T01:19:47.584Z,28.58
2023-04-08T01:22:44.060Z,22.08
2023-04-08T01:25:17.309Z,22.88
2023-04-08T01:27:44.669Z,19.98
2023-04-08T01:30:12.513Z,24.77
2023-04-08T01:32:41.241Z,20.50
2023-04-08T01:35:09.570Z,23.30
2023-04-08T01:37:37.138Z,24.85
2023-04-08T01:40:06.392Z,23.33
2023-04-08T01:42:35.247Z,19.63
2023-04-08T01:45:03.505Z,22.45
2023-04-08T01:47:30.992Z,21.42
2023-04-08T01:50:00.975Z,21.98
2023-04-08T01:52:30.345Z,24.23
2023-04-08T01:54:57.228Z,20.10
2023-04-08T01:57:27.503Z,20.85
2023-04-08T02:00:10.292Z,19.38
2023-04-08T02:02:52.935Z,19.20
2023-04-08T02:05:19.903Z,18.00
2023-04-08T02:07:48.375Z,19.95
2023-04-08T02:10:15.853Z,19.73
2023-04-08T02:12:44.338Z,25.20
2023-04-08T02:15:12.960Z,19.02
2023-04-08T02:18:02.631Z,22.40
2023-04-08T02:20:39.949Z,24.63
2023-04-08T02:23:16.505Z,20.65
2023-04-08T02:25:45.575Z,21.48
2023-04-08T02:28:13.982Z,22.67
2023-04-08T02:30:43.740Z,20.17
2023-04-08T02:33:12.022Z,19.10
2023-04-08T02:35:41.406Z,22.13
2023-04-08T02:38:10.808Z,25.17
2023-04-08T02:40:37.715Z,24.15
2023-04-08T02:43:04.635Z,21.73
2023-04-08T02:45:35.734Z,16.83
2023-04-08T02:48:02.559Z,23.60
2023-04-08T02:50:29.362Z,20.17
2023-04-08T02:52:56.145Z,26.65
2023-04-08T02:55:23.001Z,21.30
2023-04-08T02:57:49.797Z,22.13
2023-04-08T03:00:17.249Z,26.67
2023-04-08T03:02:44.157Z,27.05
2023-04-08T03:05:11.573Z,25.42
2023-04-08T03:07:38.616Z,27.15
2023-04-08T03:10:06.232Z,23.75
2023-04-08T03:12:33.124Z,24.25
2023-04-08T03:15:00.981Z,23.45
2023-04-08T03:17:27.814Z,24.20
2023-04-08T03:19:54.604Z,29.98
2023-04-08T03:22:21.399Z,20.00
2023-04-08T03:24:48.080Z,20.75
2023-04-08T03:27:14.730Z,21.92
2023-04-08T03:29:41.749Z,34.33
2023-04-08T03:32:08.788Z,19.90
2023-04-08T03:34:35.781Z,24.60
2023-04-08T03:37:02.694Z,30.97
2023-04-08T03:39:29.482Z,22.25
2023-04-08T03:41:56.313Z,24.10
2023-04-08T03:44:23.008Z,24.75
2023-04-08T03:46:49.666Z,30.23
2023-04-08T03:49:16.405Z,25.83
2023-04-08T03:51:43.099Z,28.13
2023-04-08T03:54:09.770Z,21.83
2023-04-08T03:56:36.474Z,25.98
2023-04-08T03:59:03.201Z,24.50
2023-04-08T04:01:32.370Z,22.65
2023-04-08T04:03:59.422Z,24.98
2023-04-08T04:06:26.722Z,22.23
2023-04-08T04:08:57.669Z,24.55
2023-04-08T04:11:24.325Z,23.20
2023-04-08T04:13:51.015Z,24.27
2023-04-08T04:16:17.827Z,40.90
2023-04-08T04:18:44.608Z,31.67
2023-04-08T04:21:11.507Z,29.63
2023-04-08T04:23:38.220Z,27.05
2023-04-08T04:26:10.014Z,26.17
2023-04-08T04:28:36.936Z,24.50
2023-04-08T04:31:04.042Z,22.05
2023-04-08T04:33:31.440Z,23.55
2023-04-08T04:35:58.184Z,24.83
2023-04-08T04:38:24.995Z,27.52
2023-04-08T04:40:51.703Z,26.65
2023-04-08T04:43:18.351Z,25.45
2023-04-08T04:45:45.260Z,23.35
2023-04-08T04:48:12.001Z,22.73
2023-04-08T04:50:38.651Z,25.42
2023-04-08T04:53:05.527Z,29.00
2023-04-08T04:55:32.606Z,31.25
2023-04-08T04:57:59.265Z,24.57
2023-04-08T05:00:25.990Z,28.83
2023-04-08T05:02:52.844Z,30.10
2023-04-08T05:05:19.812Z,35.67
2023-04-08T05:07:46.661Z,28.67
2023-04-08T05:10:13.310Z,23.95
2023-04-08T05:12:40.180Z,32.38
2023-04-08T05:15:07.530Z,28.60
2023-04-08T05:17:34.332Z,31.20
2023-04-08T05:20:01.271Z,28.40
2023-04-08T05:22:28.004Z,30.15
2023-04-08T05:24:54.702Z,28.48
2023-04-08T05:27:21.800Z,31.92
2023-04-08T05:29:48.629Z,38.22
2023-04-08T05:32:17.000Z,33.65
2023-04-08T05:34:44.155Z,34.65
2023-04-08T05:37:11.024Z,29.42
2023-04-08T05:39:37.820Z,32.65
2023-04-08T05:42:04.701Z,33.03
2023-04-08T05:44:31.421Z,40.80
2023-04-08T05:46:58.393Z,33.50
2023-04-08T05:49:25.344Z,37.37
2023-04-08T05:51:52.054Z,34.45
2023-04-08T05:54:18.793Z,38.25
2023-04-08T05:56:46.606Z,34.85
2023-04-08T05:59:13.277Z,36.90
2023-04-08T06:01:40.053Z,34.15
2023-04-08T06:04:07.001Z,39.95
2023-04-08T06:06:34.056Z,41.63
2023-04-08T06:09:00.780Z,33.95
2023-04-08T06:11:27.516Z,35.03
2023-04-08T06:13:54.212Z,44.13
2023-04-08T06:16:21.425Z,51.42
2023-04-08T06:18:48.481Z,41.80
2023-04-08T06:21:16.210Z,37.88
2023-04-08T06:23:42.885Z,38.22
2023-04-08T06:26:09.685Z,42.92
2023-04-08T06:28:36.381Z,41.03
2023-04-08T06:31:03.042Z,43.38
2023-04-08T06:33:29.711Z,42.75
2023-04-08T06:36:06.637Z,40.90
2023-04-08T06:38:33.952Z,43.10
2023-04-08T06:41:07.682Z,41.58
2023-04-08T06:43:35.551Z,35.47
2023-04-08T06:46:02.315Z,47.45
2023-04-08T06:48:30.747Z,41.55
2023-04-08T06:50:59.374Z,47.30
2023-04-08T06:53:29.269Z,37.88
2023-04-08T06:55:55.898Z,39.08
2023-04-08T06:58:22.567Z,42.47
2023-04-08T07:00:49.301Z,44.00
2023-04-08T07:03:16.424Z,45.15
2023-04-08T07:05:43.142Z,44.70
2023-04-08T07:08:09.830Z,40.72
2023-04-08T07:10:36.556Z,51.65
2023-04-08T07:13:04.292Z,47.63
2023-04-08T07:15:31.078Z,50.72
2023-04-08T07:17:58.845Z,47.15
2023-04-08T07:22:52.915Z,40.58
2023-04-08T07:25:19.770Z,52.53
2023-04-08T07:27:46.564Z,43.20
2023-04-08T07:30:13.307Z,46.80
2023-04-08T07:32:40.236Z,50.60
2023-04-08T07:35:07.253Z,46.53
2023-04-08T07:37:33.953Z,48.23
2023-04-08T07:40:00.881Z,55.17
2023-04-08T07:42:27.734Z,46.08
2023-04-08T07:44:54.475Z,52.63
2023-04-08T07:47:21.246Z,47.90
2023-04-08T07:49:48.448Z,51.78
2023-04-08T07:52:15.782Z,51.85
2023-04-08T07:54:42.642Z,55.50
2023-04-08T07:57:09.328Z,49.53
2023-04-08T07:59:36.239Z,53.00
2023-04-08T08:02:03.523Z,57.97
2023-04-08T08:04:30.566Z,57.88
2023-04-08T08:06:57.429Z,51.33
2023-04-08T08:09:24.131Z,56.78
2023-04-08T08:11:50.929Z,49.33
2023-04-08T08:14:17.702Z,49.60
2023-04-08T08:16:44.752Z,53.05
2023-04-08T08:19:13.868Z,50.10
2023-04-08T08:21:40.671Z,55.60
2023-04-08T08:24:07.630Z,45.00
2023-04-08T08:26:37.392Z,42.15
2023-04-08T08:29:05.138Z,48.83
2023-04-08T08:31:32.156Z,46.95
2023-04-08T08:33:58.845Z,45.10
2023-04-08T08:36:27.380Z,43.47
2023-04-08T08:38:54.329Z,43.28
2023-04-08T08:41:21.745Z,38.17
2023-04-08T08:43:49.067Z,41.80
2023-04-08T08:46:17.564Z,40.95
2023-04-08T08:48:45.015Z,44.33
2023-04-08T08:51:12.682Z,38.45
2023-04-08T08:53:45.135Z,45.92
2023-04-08T08:58:42.804Z,49.85
2023-04-08T09:01:38.617Z,43.55
2023-04-08T09:04:08.721Z,44.83
2023-04-08T09:06:36.897Z,40.83
2023-04-08T09:09:06.238Z,43.05
2023-04-08T09:11:33.390Z,39.00
2023-04-08T09:14:00.206Z,36.47
2023-04-08T09:16:28.093Z,38.72
2023-04-08T09:18:55.017Z,35.50
2023-04-08T09:21:24.786Z,38.42
2023-04-08T09:23:53.049Z,43.28
2023-04-08T09:26:24.637Z,40.45
2023-04-08T09:28:58.894Z,38.88
2023-04-08T09:31:28.264Z,38.25
2023-04-08T09:33:57.744Z,34.67
2023-04-08T09:36:26.709Z,40.38
2023-04-08T09:38:55.044Z,37.80
2023-04-08T09:41:25.545Z,38.25
2023-04-08T09:43:56.361Z,40.80
2023-04-08T09:46:29.446Z,43.90
2023-04-08T09:49:12.619Z,42.97
2023-04-08T09:51:53.283Z,40.38
2023-04-08T09:54:23.259Z,38.05
2023-04-08T09:56:58.530Z,39.92
2023-04-08T09:59:31.438Z,43.35
2023-04-08T10:02:01.552Z,40.13
2023-04-08T10:04:29.449Z,37.40
2023-04-08T10:07:03.538Z,36.50
2023-04-08T10:09:32.751Z,37.45
2023-04-08T10:12:00.836Z,39.13
2023-04-08T10:14:28.784Z,37.35
2023-04-08T10:19:42.224Z,31.50
2023-04-08T10:22:31.991Z,30.47
2023-04-08T10:25:37.856Z,34.38
2023-04-08T10:28:13.656Z,28.15
2023-04-08T10:30:47.569Z,33.67
2023-04-08T10:33:30.421Z,33.03
2023-04-08T10:36:13.479Z,36.58
2023-04-08T10:38:42.196Z,29.17
2023-04-08T10:41:14.358Z,28.95
2023-04-08T10:43:41.291Z,31.73
2023-04-08T10:46:11.784Z,29.80
2023-04-08T10:48:38.700Z,30.98
2023-04-08T10:51:05.962Z,32.50
2023-04-08T10:53:36.300Z,30.08
2023-04-08T10:56:15.375Z,31.02
2023-04-08T10:58:49.800Z,28.98
2023-04-08T11:01:16.826Z,30.52
2023-04-08T11:03:44.125Z,25.10
2023-04-08T11:06:11.908Z,27.38
2023-04-08T11:08:38.891Z,27.75
2023-04-08T11:11:10.898Z,29.77
2023-04-08T11:13:48.749Z,26.60
2023-04-08T11:16:19.312Z,56.65
2023-04-08T11:18:46.252Z,37.90
2023-04-08T11:21:13.089Z,25.20
2023-04-08T11:23:39.783Z,20.73
2023-04-08T11:26:06.985Z,21.77
2023-04-08T11:28:35.596Z,22.23
2023-04-08T11:31:09.010Z,17.98
2023-04-08T11:33:36.346Z,20.23
2023-04-08T11:36:08.474Z,25.08
2023-04-08T11:38:39.515Z,19.85
2023-04-08T11:41:06.221Z,19.45
2023-04-08T11:43:33.066Z,21.60
2023-04-08T11:45:59.939Z,21.75
2023-04-08T11:48:26.645Z,19.80
2023-04-08T11:51:09.326Z,21.50
2023-04-08T11:53:37.808Z,17.77
2023-04-08T11:56:24.091Z,16.13
2023-04-08T11:58:51.936Z,16.73
2023-04-08T12:04:00.089Z,20.07
2023-04-08T12:06:28.040Z,17.55
2023-04-08T12:08:57.056Z,18.83
2023-04-08T12:11:24.286Z,16.75
2023-04-08T12:13:51.536Z,16.20
2023-04-08T12:16:19.165Z,16.77
2023-04-08T12:18:46.883Z,15.88
2023-04-08T12:21:13.733Z,18.20
2023-04-08T12:23:40.648Z,16.43
2023-04-08T12:26:08.016Z,26.13
2023-04-08T12:28:35.574Z,17.75
2023-04-08T12:31:02.503Z,16.10
2023-04-08T12:33:29.931Z,15.80
2023-04-08T12:35:59.104Z,15.60
2023-04-08T12:38:27.104Z,16.85
2023-04-08T12:40:54.717Z,16.83
2023-04-08T12:43:22.107Z,15.43
2023-04-08T12:45:49.137Z,18.55
2023-04-08T12:48:15.992Z,17.20
2023-04-08T12:50:42.803Z,14.67
2023-04-08T12:53:09.524Z,17.48
2023-04-08T12:55:36.440Z,15.77
2023-04-08T12:58:03.301Z,15.75
2023-04-08T13:00:30.202Z,13.20
2023-04-08T13:02:56.959Z,15.25
2023-04-08T13:05:39.736Z,13.68
2023-04-08T13:08:10.141Z,12.32
2023-04-08T13:10:36.784Z,12.27
2023-04-08T13:13:03.708Z,12.55
2023-04-08T13:15:30.506Z,12.80
2023-04-08T13:17:57.200Z,11.40
2023-04-08T13:20:25.964Z,11.10
2023-04-08T13:22:53.287Z,13.05
2023-04-08T13:25:20.424Z,12.38
2023-04-08T13:27:47.129Z,13.20
2023-04-08T13:30:14.183Z,14.40
2023-04-08T13:32:40.884Z,11.43
2023-04-08T13:35:08.055Z,12.98
2023-04-08T13:37:34.755Z,11.82
2023-04-08T13:40:01.659Z,12.93
2023-04-08T13:42:28.412Z,29.13
2023-04-08T13:44:55.052Z,16.15
2023-04-08T13:47:21.708Z,12.30
2023-04-08T13:49:48.367Z,11.35
2023-04-08T13:52:15.707Z,13.43
2023-04-08T13:54:42.334Z,11.20
2023-04-08T13:57:08.986Z,16.50
2023-04-08T13:59:35.872Z,12.75
2023-04-08T14:02:02.699Z,11.43
2023-04-08T14:04:29.921Z,10.32
2023-04-08T14:06:58.154Z,9.50
2023-04-08T14:09:24.932Z,13.02
2023-04-08T14:11:51.629Z,12.43
2023-04-08T14:14:18.316Z,11.73
2023-04-08T14:16:45.107Z,10.57
2023-04-08T14:19:11.974Z,11.15
2023-04-08T14:21:38.624Z,11.38
2023-04-08T14:24:07.277Z,14.00
2023-04-08T14:26:36.001Z,11.38
2023-04-08T14:29:06.934Z,11.60
2023-04-08T14:31:34.268Z,10.93
2023-04-08T14:34:01.624Z,9.63
2023-04-08T14:36:28.995Z,21.08
2023-04-08T14:38:55.984Z,11.15
2023-04-08T14:41:27.172Z,12.02
2023-04-08T14:43:54.246Z,8.70
2023-04-08T14:46:21.547Z,10.98
2023-04-08T14:48:48.672Z,9.85
2023-04-08T14:51:15.393Z,9.35
2023-04-08T14:53:42.060Z,10.27
2023-04-08T14:56:08.957Z,11.43
2023-04-08T14:58:36.073Z,9.35
2023-04-08T15:01:03.406Z,9.20
2023-04-08T15:03:30.437Z,8.48
2023-04-08T15:05:58.937Z,9.60
2023-04-08T15:08:25.700Z,9.05
2023-04-08T15:10:52.443Z,10.07
2023-04-08T15:13:19.119Z,17.33
2023-04-08T15:15:45.897Z,11.52
2023-04-08T15:18:12.713Z,10.00
2023-04-08T15:20:39.438Z,12.20
2023-04-08T15:23:06.212Z,8.80
2023-04-08T15:25:33.032Z,8.80
2023-04-08T15:28:00.000Z,7.85
2023-04-08T15:30:27.667Z,8.18
2023-04-08T15:32:56.968Z,7.82
2023-04-08T15:35:24.139Z,8.90
2023-04-08T15:37:50.893Z,10.25
2023-04-08T15:40:17.774Z,9.52
2023-04-08T15:42:44.728Z,9.23
2023-04-08T15:45:11.948Z,10.13
2023-04-08T15:47:38.740Z,8.85
2023-04-08T15:50:06.491Z,9.93
2023-04-08T15:52:35.079Z,12.90
2023-04-08T15:55:02.782Z,7.80
2023-04-08T15:59:57.740Z,8.02
2023-04-08T16:02:24.576Z,7.40
2023-04-08T16:04:51.321Z,9.07
2023-04-08T16:07:18.373Z,10.43
2023-04-08T16:09:45.398Z,11.50
2023-04-08T16:12:12.405Z,10.70
2023-04-08T16:14:39.349Z,8.25
2023-04-08T16:17:06.366Z,9.18
2023-04-08T16:19:33.053Z,10.57
2023-04-08T16:21:59.729Z,8.85
2023-04-08T16:24:26.476Z,12.23
2023-04-08T16:26:53.134Z,7.75
2023-04-08T16:29:19.835Z,10.80
2023-04-08T16:31:46.510Z,12.75
2023-04-08T16:34:13.195Z,14.23
2023-04-08T16:36:39.830Z,14.57
2023-04-08T16:39:06.513Z,15.05
2023-04-08T16:41:33.558Z,19.85
2023-04-08T16:44:00.258Z,22.60
2023-04-08T16:46:26.901Z,16.25
2023-04-08T16:48:53.588Z,18.45
2023-04-08T16:51:20.421Z,18.35
2023-04-08T16:53:47.120Z,18.00
2023-04-08T16:56:17.031Z,19.38
2023-04-08T16:58:43.806Z,18.13
2023-04-08T17:01:11.528Z,18.02
2023-04-08T17:03:38.609Z,18.65
2023-04-08T17:06:09.735Z,16.52
2023-04-08T17:08:36.547Z,15.63
2023-04-08T17:11:14.721Z,15.73
2023-04-08T17:13:42.907Z,14.90
2023-04-08T17:18:46.440Z,15.32
2023-04-08T17:21:14.375Z,17.02
2023-04-08T17:26:14.527Z,17.58
2023-04-08T17:28:41.226Z,15.23
2023-04-08T17:31:08.005Z,16.75
2023-04-08T17:33:34.663Z,15.45
2023-04-08T17:36:01.601Z,16.52
2023-04-08T17:38:28.509Z,16.90
2023-04-08T17:40:55.197Z,21.58
2023-04-08T17:43:22.090Z,27.52
2023-04-08T17:45:50.161Z,48.20
2023-04-08T17:48:17.236Z,19.30
2023-04-08T17:50:43.894Z,25.13
2023-04-08T17:53:10.699Z,19.90
2023-04-08T17:55:37.558Z,17.52
2023-04-08T17:58:04.448Z,16.45
2023-04-08T18:00:31.492Z,17.38
2023-04-08T18:02:58.301Z,15.83
2023-04-08T18:05:25.030Z,17.70
2023-04-08T18:07:51.684Z,20.05
2023-04-08T18:10:18.554Z,20.13
2023-04-08T18:12:45.823Z,19.42
2023-04-08T18:15:12.689Z,19.88
2023-04-08T18:17:39.360Z,25.80
2023-04-08T18:20:06.773Z,32.13
2023-04-08T18:22:33.452Z,33.75
2023-04-08T18:25:00.224Z,50.70
2023-04-08T18:27:27.131Z,33.93
2023-04-08T18:29:53.997Z,35.88
2023-04-08T18:32:20.841Z,58.00
2023-04-08T18:34:50.598Z,107.00
2023-04-08T18:37:17.959Z,165.65
2023-04-08T18:39:44.706Z,190.50
2023-04-08T18:42:11.368Z,166.52
2023-04-08T18:44:38.245Z,149.02
2023-04-08T18:47:05.101Z,82.38
2023-04-08T18:49:33.919Z,88.88
2023-04-08T18:52:02.872Z,71.55
2023-04-08T18:54:30.126Z,81.32
2023-04-08T18:56:56.920Z,93.95
2023-04-08T18:59:23.708Z,118.40
2023-04-08T19:01:50.879Z,101.80
2023-04-08T19:04:18.318Z,124.60
2023-04-08T19:06:45.142Z,116.28
2023-04-08T19:09:11.816Z,49.45
2023-04-08T19:11:38.556Z,30.08
2023-04-08T19:14:05.471Z,34.13
2023-04-08T19:16:32.362Z,23.13
2023-04-08T19:18:59.109Z,27.40
2023-04-08T19:21:27.255Z,23.52
2023-04-08T19:23:54.301Z,26.33
2023-04-08T19:26:21.058Z,26.97
2023-04-08T19:28:47.734Z,25.08
2023-04-08T19:31:21.620Z,26.13
2023-04-08T19:33:48.450Z,24.45
2023-04-08T19:36:15.551Z,23.65
2023-04-08T19:38:42.465Z,22.30
2023-04-08T19:41:09.123Z,19.83
2023-04-08T19:43:36.090Z,22.77
2023-04-08T19:46:03.687Z,18.00
2023-04-08T19:48:31.090Z,15.77
2023-04-08T19:50:57.812Z,19.83
2023-04-08T19:53:24.490Z,19.30
2023-04-08T19:55:58.828Z,17.95
2023-04-08T19:58:25.789Z,18.10
2023-04-08T20:00:52.628Z,17.90
2023-04-08T20:03:19.557Z,17.23
2023-04-08T20:05:46.894Z,16.77
2023-04-08T20:08:13.589Z,18.23
2023-04-08T20:10:40.254Z,16.73
2023-04-08T20:13:06.939Z,16.77
2023-04-08T20:15:33.610Z,18.05
2023-04-08T20:18:00.433Z,16.52
2023-04-08T20:20:28.934Z,18.45
2023-04-08T20:22:56.684Z,15.05
2023-04-08T20:25:23.398Z,16.88
2023-04-08T20:27:50.173Z,19.20
2023-04-08T20:30:16.883Z,17.60
2023-04-08T20:32:43.595Z,16.80
2023-04-08T20:35:10.945Z,17.83
2023-04-08T20:37:38.012Z,19.48
2023-04-08T20:40:05.284Z,17.73
2023-04-08T20:42:32.073Z,18.70
2023-04-08T20:44:58.723Z,19.73
2023-04-08T20:47:25.767Z,21.35
2023-04-08T20:49:52.656Z,17.10
2023-04-08T20:52:19.300Z,19.17
2023-04-08T20:54:46.068Z,18.63
2023-04-08T20:57:12.733Z,17.13
2023-04-08T20:59:39.464Z,17.25
2023-04-08T21:02:07.765Z,16.58
2023-04-08T21:04:34.474Z,16.23
2023-04-08T21:07:01.208Z,17.63
2023-04-08T21:09:27.920Z,17.27
2023-04-08T21:11:54.589Z,16.95
2023-04-08T21:14:21.292Z,18.60
2023-04-08T21:16:48.022Z,20.35
2023-04-08T21:19:14.936Z,30.80
2023-04-08T21:21:41.672Z,38.97
2023-04-08T21:24:09.490Z,56.80
2023-04-08T21:26:36.146Z,46.10
2023-04-08T21:29:02.835Z,46.25
2023-04-08T21:31:30.387Z,84.40
2023-04-08T21:33:57.331Z,42.70
2023-04-08T21:36:24.229Z,42.47
2023-04-08T21:38:51.424Z,37.95
2023-04-08T21:41:18.589Z,50.85
2023-04-08T21:43:45.314Z,45.05
2023-04-08T21:46:12.045Z,49.13
2023-04-08T21:48:38.809Z,51.97
2023-04-08T21:51:07.006Z,49.38
2023-04-08T21:53:33.695Z,42.15
2023-04-08T21:56:00.450Z,39.63
2023-04-08T21:58:28.242Z,35.28
2023-04-08T22:00:54.988Z,30.25
2023-04-08T22:03:22.031Z,26.98
2023-04-08T22:05:48.784Z,27.58
2023-04-08T22:08:16.188Z,29.60
2023-04-08T22:10:42.945Z,31.17
2023-04-08T22:13:10.729Z,31.13
2023-04-08T22:15:37.475Z,34.13
2023-04-08T22:18:05.057Z,27.20
2023-04-08T22:20:31.921Z,27.45
2023-04-08T22:22:58.614Z,27.52
2023-04-08T22:25:25.341Z,30.83
2023-04-08T22:27:52.071Z,24.08
2023-04-08T22:30:18.776Z,25.50
2023-04-08T22:32:45.503Z,24.65
2023-04-08T22:35:12.208Z,24.35
2023-04-08T22:37:38.969Z,25.92
2023-04-08T22:40:06.698Z,27.40
2023-04-08T22:42:33.425Z,28.42
2023-04-08T22:45:00.197Z,27.23
2023-04-08T22:47:26.965Z,27.90
2023-04-08T22:49:53.621Z,32.30
2023-04-08T22:52:20.384Z,76.60
2023-04-08T22:54:47.236Z,74.47
2023-04-08T22:57:13.965Z,43.63
2023-04-08T22:59:40.624Z,37.50
2023-04-08T23:02:07.485Z,32.92
2023-04-08T23:04:34.219Z,28.55
2023-04-08T23:07:01.168Z,34.00
2023-04-08T23:09:28.260Z,31.38
2023-04-08T23:11:55.028Z,30.90
2023-04-08T23:14:21.679Z,29.90
2023-04-08T23:16:48.341Z,28.58
2023-04-08T23:19:15.067Z,23.30
2023-04-08T23:21:41.881Z,26.83
2023-04-08T23:24:08.641Z,26.65
2023-04-08T23:26:35.422Z,26.17
2023-04-08T23:29:02.117Z,23.92
2023-04-08T23:31:28.826Z,26.50
2023-04-08T23:33:55.624Z,26.77
2023-04-08T23:36:22.270Z,31.80
2023-04-08T23:38:50.548Z,32.63
2023-04-08T23:41:17.583Z,33.55
2023-04-08T23:43:45.533Z,30.45
2023-04-08T23:48:38.838Z,27.63
2023-04-08T23:51:06.169Z,30.50
2023-04-08T23:53:32.913Z,27.15
2023-04-08T23:56:07.121Z,27.00
2023-04-08T23:58:34.402Z,27.08
